Lariat, Colorado
Current Conditions -  °F | °C
As of 5:52 PM on Friday 28 Nov 2014 (Local Time) from KALS Reporting Station
Clear Clear  
Wind Chill: 35°   Ceiling: Unl
Heat Index: 41°   Visibility: 10mi
Dew Point:   Wind: 10mph
Humidity: 26%   Direction: 230°SW
Pressure: 30.08"   Gusts: NA
Location:  37.5196°N, 106.176°W
Report Text: KALS 290052Z AUTO 23009KT 10SM CLR 05/M13 A3008 RMK AO2 SLP210 T00501133
Loading
Personal Weather Stations






























Interactive Weather Map New forecast layout! Learn more

10-Day Weather Forecast

Advertisements
Track Severe Weather on mobile